sensor_id;sensor_type;location;lat;lon;timestamp;P1;durP1;ratioP1;P2;durP2;ratioP2
52940;SDS011;62001;53.366;6.636;2023-04-25T00:01:33;25.20;;;4.93;;
52940;SDS011;62001;53.366;6.636;2023-04-25T00:04:01;25.27;;;4.30;;
52940;SDS011;62001;53.366;6.636;2023-04-25T00:06:28;23.43;;;4.00;;
52940;SDS011;62001;53.366;6.636;2023-04-25T00:08:57;22.58;;;3.83;;
52940;SDS011;62001;53.366;6.636;2023-04-25T00:11:23;25.53;;;4.47;;
52940;SDS011;62001;53.366;6.636;2023-04-25T00:13:49;20.13;;;4.43;;
52940;SDS011;62001;53.366;6.636;2023-04-25T00:16:19;18.10;;;4.13;;
52940;SDS011;62001;53.366;6.636;2023-04-25T00:18:45;20.33;;;4.33;;
52940;SDS011;62001;53.366;6.636;2023-04-25T00:21:17;23.43;;;4.00;;
52940;SDS011;62001;53.366;6.636;2023-04-25T00:23:43;16.80;;;3.53;;
52940;SDS011;62001;53.366;6.636;2023-04-25T00:26:11;18.17;;;4.10;;
52940;SDS011;62001;53.366;6.636;2023-04-25T00:28:37;27.80;;;4.20;;
52940;SDS011;62001;53.366;6.636;2023-04-25T00:31:03;25.80;;;4.43;;
52940;SDS011;62001;53.366;6.636;2023-04-25T00:33:29;22.03;;;4.27;;
52940;SDS011;62001;53.366;6.636;2023-04-25T00:35:55;20.40;;;3.80;;
52940;SDS011;62001;53.366;6.636;2023-04-25T00:38:21;17.40;;;3.67;;
52940;SDS011;62001;53.366;6.636;2023-04-25T00:40:47;22.60;;;3.50;;
52940;SDS011;62001;53.366;6.636;2023-04-25T00:43:13;19.57;;;3.50;;
52940;SDS011;62001;53.366;6.636;2023-04-25T00:45:39;18.57;;;4.03;;
52940;SDS011;62001;53.366;6.636;2023-04-25T00:48:05;18.37;;;3.47;;
52940;SDS011;62001;53.366;6.636;2023-04-25T00:50:32;21.17;;;3.57;;
52940;SDS011;62001;53.366;6.636;2023-04-25T00:52:59;19.57;;;3.10;;
52940;SDS011;62001;53.366;6.636;2023-04-25T00:55:26;17.67;;;3.30;;
52940;SDS011;62001;53.366;6.636;2023-04-25T00:57:52;21.10;;;3.40;;
52940;SDS011;62001;53.366;6.636;2023-04-25T01:00:18;19.70;;;3.80;;
52940;SDS011;62001;53.366;6.636;2023-04-25T01:02:44;27.13;;;4.27;;
52940;SDS011;62001;53.366;6.636;2023-04-25T01:05:11;20.23;;;3.47;;
52940;SDS011;62001;53.366;6.636;2023-04-25T01:07:37;21.03;;;3.60;;
52940;SDS011;62001;53.366;6.636;2023-04-25T01:10:04;13.60;;;3.03;;
52940;SDS011;62001;53.366;6.636;2023-04-25T01:12:31;18.23;;;3.40;;
52940;SDS011;62001;53.366;6.636;2023-04-25T01:14:57;14.40;;;3.30;;
52940;SDS011;62001;53.366;6.636;2023-04-25T01:17:23;15.43;;;3.13;;
52940;SDS011;62001;53.366;6.636;2023-04-25T01:19:49;16.20;;;3.03;;
52940;SDS011;62001;53.366;6.636;2023-04-25T01:22:15;20.43;;;3.63;;
52940;SDS011;62001;53.366;6.636;2023-04-25T01:24:42;16.20;;;3.53;;
52940;SDS011;62001;53.366;6.636;2023-04-25T01:27:08;23.40;;;3.37;;
52940;SDS011;62001;53.366;6.636;2023-04-25T01:29:34;15.93;;;3.37;;
52940;SDS011;62001;53.366;6.636;2023-04-25T01:32:01;20.50;;;3.73;;
52940;SDS011;62001;53.366;6.636;2023-04-25T01:34:27;17.13;;;3.67;;
52940;SDS011;62001;53.366;6.636;2023-04-25T01:36:52;19.07;;;3.70;;
52940;SDS011;62001;53.366;6.636;2023-04-25T01:39:19;16.90;;;3.87;;
52940;SDS011;62001;53.366;6.636;2023-04-25T01:41:48;18.23;;;3.33;;
52940;SDS011;62001;53.366;6.636;2023-04-25T01:44:14;19.57;;;3.33;;
52940;SDS011;62001;53.366;6.636;2023-04-25T01:46:40;21.53;;;3.70;;
52940;SDS011;62001;53.366;6.636;2023-04-25T01:49:06;19.27;;;3.23;;
52940;SDS011;62001;53.366;6.636;2023-04-25T01:51:32;15.43;;;2.80;;
52940;SDS011;62001;53.366;6.636;2023-04-25T01:53:58;18.53;;;3.13;;
52940;SDS011;62001;53.366;6.636;2023-04-25T01:56:29;22.70;;;3.90;;
52940;SDS011;62001;53.366;6.636;2023-04-25T02:01:22;25.43;;;3.73;;
52940;SDS011;62001;53.366;6.636;2023-04-25T02:03:48;14.57;;;3.20;;
52940;SDS011;62001;53.366;6.636;2023-04-25T02:06:13;16.67;;;3.40;;
52940;SDS011;62001;53.366;6.636;2023-04-25T02:08:39;20.97;;;3.60;;
52940;SDS011;62001;53.366;6.636;2023-04-25T02:11:05;20.00;;;3.47;;
52940;SDS011;62001;53.366;6.636;2023-04-25T02:13:31;18.10;;;3.30;;
52940;SDS011;62001;53.366;6.636;2023-04-25T02:15:57;18.20;;;3.23;;
52940;SDS011;62001;53.366;6.636;2023-04-25T02:18:23;16.90;;;2.87;;
52940;SDS011;62001;53.366;6.636;2023-04-25T02:20:48;21.30;;;3.70;;
52940;SDS011;62001;53.366;6.636;2023-04-25T02:23:14;20.63;;;4.23;;
52940;SDS011;62001;53.366;6.636;2023-04-25T02:25:40;14.50;;;3.30;;
52940;SDS011;62001;53.366;6.636;2023-04-25T02:28:06;14.57;;;2.53;;
52940;SDS011;62001;53.366;6.636;2023-04-25T02:30:32;14.27;;;2.97;;
52940;SDS011;62001;53.366;6.636;2023-04-25T02:32:59;15.27;;;2.77;;
52940;SDS011;62001;53.366;6.636;2023-04-25T02:35:24;14.77;;;3.00;;
52940;SDS011;62001;53.366;6.636;2023-04-25T02:37:50;11.30;;;2.67;;
52940;SDS011;62001;53.366;6.636;2023-04-25T02:40:16;18.83;;;3.27;;
52940;SDS011;62001;53.366;6.636;2023-04-25T02:42:42;16.83;;;2.83;;
52940;SDS011;62001;53.366;6.636;2023-04-25T02:45:10;17.83;;;3.03;;
52940;SDS011;62001;53.366;6.636;2023-04-25T02:47:36;22.03;;;3.93;;
52940;SDS011;62001;53.366;6.636;2023-04-25T02:50:02;23.23;;;3.33;;
52940;SDS011;62001;53.366;6.636;2023-04-25T02:52:29;20.13;;;4.00;;
52940;SDS011;62001;53.366;6.636;2023-04-25T02:54:55;23.00;;;3.43;;
52940;SDS011;62001;53.366;6.636;2023-04-25T02:57:21;20.97;;;3.47;;
52940;SDS011;62001;53.366;6.636;2023-04-25T02:59:47;13.13;;;3.00;;
52940;SDS011;62001;53.366;6.636;2023-04-25T03:02:13;20.57;;;3.60;;
52940;SDS011;62001;53.366;6.636;2023-04-25T03:04:39;14.73;;;2.93;;
52940;SDS011;62001;53.366;6.636;2023-04-25T03:07:05;24.60;;;3.17;;
52940;SDS011;62001;53.366;6.636;2023-04-25T03:09:30;17.57;;;3.20;;
52940;SDS011;62001;53.366;6.636;2023-04-25T03:11:56;17.83;;;3.13;;
52940;SDS011;62001;53.366;6.636;2023-04-25T03:14:22;19.37;;;3.20;;
52940;SDS011;62001;53.366;6.636;2023-04-25T03:16:48;18.07;;;3.23;;
52940;SDS011;62001;53.366;6.636;2023-04-25T03:19:14;19.10;;;3.00;;
52940;SDS011;62001;53.366;6.636;2023-04-25T03:21:42;20.63;;;2.83;;
52940;SDS011;62001;53.366;6.636;2023-04-25T03:24:08;16.70;;;3.30;;
52940;SDS011;62001;53.366;6.636;2023-04-25T03:26:36;17.63;;;2.67;;
52940;SDS011;62001;53.366;6.636;2023-04-25T03:29:02;17.77;;;3.00;;
52940;SDS011;62001;53.366;6.636;2023-04-25T03:31:27;15.70;;;2.67;;
52940;SDS011;62001;53.366;6.636;2023-04-25T03:33:53;18.50;;;3.10;;
52940;SDS011;62001;53.366;6.636;2023-04-25T03:36:19;21.13;;;3.23;;
52940;SDS011;62001;53.366;6.636;2023-04-25T03:38:45;13.87;;;2.93;;
52940;SDS011;62001;53.366;6.636;2023-04-25T03:41:11;16.40;;;3.13;;
52940;SDS011;62001;53.366;6.636;2023-04-25T03:43:37;9.83;;;2.20;;
52940;SDS011;62001;53.366;6.636;2023-04-25T03:46:03;8.40;;;2.00;;
52940;SDS011;62001;53.366;6.636;2023-04-25T03:48:29;9.80;;;1.90;;
52940;SDS011;62001;53.366;6.636;2023-04-25T03:50:54;8.93;;;1.70;;
52940;SDS011;62001;53.366;6.636;2023-04-25T03:53:20;12.70;;;2.23;;
52940;SDS011;62001;53.366;6.636;2023-04-25T03:55:46;7.77;;;1.80;;
52940;SDS011;62001;53.366;6.636;2023-04-25T03:58:12;6.93;;;2.07;;
52940;SDS011;62001;53.366;6.636;2023-04-25T04:00:38;12.03;;;2.00;;
52940;SDS011;62001;53.366;6.636;2023-04-25T04:03:04;18.30;;;2.57;;
52940;SDS011;62001;53.366;6.636;2023-04-25T04:05:30;11.13;;;2.20;;
52940;SDS011;62001;53.366;6.636;2023-04-25T04:07:56;16.23;;;2.50;;
52940;SDS011;62001;53.366;6.636;2023-04-25T04:10:22;13.53;;;2.10;;
52940;SDS011;62001;53.366;6.636;2023-04-25T04:12:47;17.50;;;2.60;;
52940;SDS011;62001;53.366;6.636;2023-04-25T04:15:13;15.77;;;2.57;;
52940;SDS011;62001;53.366;6.636;2023-04-25T04:17:39;12.30;;;2.20;;
52940;SDS011;62001;53.366;6.636;2023-04-25T04:20:06;11.10;;;2.00;;
52940;SDS011;62001;53.366;6.636;2023-04-25T04:22:33;10.70;;;2.20;;
52940;SDS011;62001;53.366;6.636;2023-04-25T04:24:59;10.10;;;2.43;;
52940;SDS011;62001;53.366;6.636;2023-04-25T04:27:24;10.63;;;2.30;;
52940;SDS011;62001;53.366;6.636;2023-04-25T04:29:50;14.10;;;2.80;;
52940;SDS011;62001;53.366;6.636;2023-04-25T04:32:18;20.43;;;2.87;;
52940;SDS011;62001;53.366;6.636;2023-04-25T04:34:44;13.50;;;2.67;;
52940;SDS011;62001;53.366;6.636;2023-04-25T04:37:12;15.33;;;2.60;;
52940;SDS011;62001;53.366;6.636;2023-04-25T04:39:38;17.60;;;2.47;;
52940;SDS011;62001;53.366;6.636;2023-04-25T04:42:04;11.83;;;3.07;;
52940;SDS011;62001;53.366;6.636;2023-04-25T04:44:30;19.77;;;2.80;;
52940;SDS011;62001;53.366;6.636;2023-04-25T04:46:59;18.00;;;2.70;;
52940;SDS011;62001;53.366;6.636;2023-04-25T04:49:25;15.57;;;2.67;;
52940;SDS011;62001;53.366;6.636;2023-04-25T04:51:51;14.00;;;2.53;;
52940;SDS011;62001;53.366;6.636;2023-04-25T04:54:17;14.40;;;2.63;;
52940;SDS011;62001;53.366;6.636;2023-04-25T04:56:43;10.57;;;1.80;;
52940;SDS011;62001;53.366;6.636;2023-04-25T04:59:09;12.20;;;2.37;;
52940;SDS011;62001;53.366;6.636;2023-04-25T05:01:36;8.93;;;2.20;;
52940;SDS011;62001;53.366;6.636;2023-04-25T05:04:02;10.10;;;2.00;;
52940;SDS011;62001;53.366;6.636;2023-04-25T05:06:29;8.77;;;1.90;;
52940;SDS011;62001;53.366;6.636;2023-04-25T05:08:55;11.83;;;2.13;;
52940;SDS011;62001;53.366;6.636;2023-04-25T05:11:22;13.33;;;2.40;;
52940;SDS011;62001;53.366;6.636;2023-04-25T05:13:51;13.37;;;2.50;;
52940;SDS011;62001;53.366;6.636;2023-04-25T05:16:17;7.23;;;1.70;;
52940;SDS011;62001;53.366;6.636;2023-04-25T05:18:43;7.53;;;1.80;;
52940;SDS011;62001;53.366;6.636;2023-04-25T05:21:09;10.70;;;1.63;;
52940;SDS011;62001;53.366;6.636;2023-04-25T05:23:35;9.90;;;2.70;;
52940;SDS011;62001;53.366;6.636;2023-04-25T05:26:01;14.83;;;3.17;;
52940;SDS011;62001;53.366;6.636;2023-04-25T05:28:27;15.50;;;2.87;;
52940;SDS011;62001;53.366;6.636;2023-04-25T05:30:53;12.00;;;2.63;;
52940;SDS011;62001;53.366;6.636;2023-04-25T05:33:19;12.00;;;2.60;;
52940;SDS011;62001;53.366;6.636;2023-04-25T05:35:45;14.60;;;2.70;;
52940;SDS011;62001;53.366;6.636;2023-04-25T05:38:11;16.67;;;2.57;;
52940;SDS011;62001;53.366;6.636;2023-04-25T05:40:37;17.10;;;2.83;;
52940;SDS011;62001;53.366;6.636;2023-04-25T05:43:02;12.80;;;2.80;;
52940;SDS011;62001;53.366;6.636;2023-04-25T05:45:28;17.27;;;2.20;;
52940;SDS011;62001;53.366;6.636;2023-04-25T05:47:54;15.17;;;2.50;;
52940;SDS011;62001;53.366;6.636;2023-04-25T05:50:20;17.33;;;2.73;;
52940;SDS011;62001;53.366;6.636;2023-04-25T05:52:46;14.40;;;2.47;;
52940;SDS011;62001;53.366;6.636;2023-04-25T05:55:12;11.57;;;2.20;;
52940;SDS011;62001;53.366;6.636;2023-04-25T05:57:38;7.00;;;1.50;;
52940;SDS011;62001;53.366;6.636;2023-04-25T06:00:07;7.77;;;2.00;;
52940;SDS011;62001;53.366;6.636;2023-04-25T06:02:34;8.97;;;1.80;;
52940;SDS011;62001;53.366;6.636;2023-04-25T06:05:00;9.20;;;1.73;;
52940;SDS011;62001;53.366;6.636;2023-04-25T06:07:29;12.03;;;2.10;;
52940;SDS011;62001;53.366;6.636;2023-04-25T06:09:56;11.60;;;2.27;;
52940;SDS011;62001;53.366;6.636;2023-04-25T06:12:22;11.40;;;2.07;;
52940;SDS011;62001;53.366;6.636;2023-04-25T06:14:47;12.37;;;2.40;;
52940;SDS011;62001;53.366;6.636;2023-04-25T06:17:13;14.03;;;2.30;;
52940;SDS011;62001;53.366;6.636;2023-04-25T06:19:39;15.03;;;1.87;;
52940;SDS011;62001;53.366;6.636;2023-04-25T06:22:07;10.33;;;2.07;;
52940;SDS011;62001;53.366;6.636;2023-04-25T06:24:33;9.27;;;2.10;;
52940;SDS011;62001;53.366;6.636;2023-04-25T06:26:59;8.27;;;2.45;;
52940;SDS011;62001;53.366;6.636;2023-04-25T06:29:25;7.72;;;2.15;;
52940;SDS011;62001;53.366;6.636;2023-04-25T06:31:51;8.82;;;1.80;;
52940;SDS011;62001;53.366;6.636;2023-04-25T06:34:17;10.57;;;2.28;;
52940;SDS011;62001;53.366;6.636;2023-04-25T06:36:43;11.00;;;2.20;;
52940;SDS011;62001;53.366;6.636;2023-04-25T06:39:09;15.18;;;2.42;;
52940;SDS011;62001;53.366;6.636;2023-04-25T06:41:36;11.85;;;2.08;;
52940;SDS011;62001;53.366;6.636;2023-04-25T06:44:02;12.00;;;1.88;;
52940;SDS011;62001;53.366;6.636;2023-04-25T06:46:28;5.82;;;1.20;;
52940;SDS011;62001;53.366;6.636;2023-04-25T06:48:54;5.03;;;1.17;;
52940;SDS011;62001;53.366;6.636;2023-04-25T06:51:20;8.73;;;1.50;;
52940;SDS011;62001;53.366;6.636;2023-04-25T06:53:46;5.60;;;1.27;;
52940;SDS011;62001;53.366;6.636;2023-04-25T06:56:12;10.32;;;1.70;;
52940;SDS011;62001;53.366;6.636;2023-04-25T06:58:37;7.53;;;1.60;;
52940;SDS011;62001;53.366;6.636;2023-04-25T07:01:03;7.07;;;1.65;;
52940;SDS011;62001;53.366;6.636;2023-04-25T07:03:29;5.18;;;1.20;;
52940;SDS011;62001;53.366;6.636;2023-04-25T07:05:55;4.95;;;1.30;;
52940;SDS011;62001;53.366;6.636;2023-04-25T07:08:21;8.23;;;1.35;;
52940;SDS011;62001;53.366;6.636;2023-04-25T07:10:47;5.88;;;1.58;;
52940;SDS011;62001;53.366;6.636;2023-04-25T07:13:13;6.55;;;1.98;;
52940;SDS011;62001;53.366;6.636;2023-04-25T07:15:38;9.73;;;1.80;;
52940;SDS011;62001;53.366;6.636;2023-04-25T07:18:04;7.55;;;2.20;;
52940;SDS011;62001;53.366;6.636;2023-04-25T07:20:30;9.07;;;2.15;;
52940;SDS011;62001;53.366;6.636;2023-04-25T07:22:57;8.10;;;2.13;;
52940;SDS011;62001;53.366;6.636;2023-04-25T07:25:23;10.07;;;2.13;;
52940;SDS011;62001;53.366;6.636;2023-04-25T07:27:49;12.45;;;2.42;;
52940;SDS011;62001;53.366;6.636;2023-04-25T07:30:15;10.35;;;2.17;;
52940;SDS011;62001;53.366;6.636;2023-04-25T07:32:41;7.97;;;1.85;;
52940;SDS011;62001;53.366;6.636;2023-04-25T07:35:07;8.52;;;2.30;;
52940;SDS011;62001;53.366;6.636;2023-04-25T07:37:33;12.00;;;2.35;;
52940;SDS011;62001;53.366;6.636;2023-04-25T07:40:01;9.05;;;2.10;;
52940;SDS011;62001;53.366;6.636;2023-04-25T07:42:29;9.48;;;1.85;;
52940;SDS011;62001;53.366;6.636;2023-04-25T07:44:55;7.80;;;2.05;;
52940;SDS011;62001;53.366;6.636;2023-04-25T07:47:21;11.30;;;2.13;;
52940;SDS011;62001;53.366;6.636;2023-04-25T07:49:47;8.18;;;2.08;;
52940;SDS011;62001;53.366;6.636;2023-04-25T07:52:13;9.73;;;1.95;;
52940;SDS011;62001;53.366;6.636;2023-04-25T07:54:39;10.52;;;2.10;;
52940;SDS011;62001;53.366;6.636;2023-04-25T07:57:05;8.57;;;2.45;;
52940;SDS011;62001;53.366;6.636;2023-04-25T07:59:33;11.90;;;2.35;;
52940;SDS011;62001;53.366;6.636;2023-04-25T08:01:59;7.50;;;2.47;;
52940;SDS011;62001;53.366;6.636;2023-04-25T08:04:25;14.43;;;2.80;;
52940;SDS011;62001;53.366;6.636;2023-04-25T08:06:52;8.55;;;2.00;;
52940;SDS011;62001;53.366;6.636;2023-04-25T08:09:19;13.98;;;1.83;;
52940;SDS011;62001;53.366;6.636;2023-04-25T08:11:45;6.82;;;2.08;;
52940;SDS011;62001;53.366;6.636;2023-04-25T08:14:12;12.70;;;2.40;;
52940;SDS011;62001;53.366;6.636;2023-04-25T08:16:38;12.48;;;2.50;;
52940;SDS011;62001;53.366;6.636;2023-04-25T08:19:04;11.55;;;2.28;;
52940;SDS011;62001;53.366;6.636;2023-04-25T08:21:30;8.02;;;2.00;;
52940;SDS011;62001;53.366;6.636;2023-04-25T08:23:57;7.47;;;1.60;;
52940;SDS011;62001;53.366;6.636;2023-04-25T08:26:23;6.75;;;1.45;;
52940;SDS011;62001;53.366;6.636;2023-04-25T08:28:50;6.35;;;1.70;;
52940;SDS011;62001;53.366;6.636;2023-04-25T08:31:15;8.27;;;1.38;;
52940;SDS011;62001;53.366;6.636;2023-04-25T08:33:42;8.60;;;1.63;;
52940;SDS011;62001;53.366;6.636;2023-04-25T08:36:08;7.80;;;1.77;;
52940;SDS011;62001;53.366;6.636;2023-04-25T08:38:34;9.52;;;1.88;;
52940;SDS011;62001;53.366;6.636;2023-04-25T08:41:00;10.07;;;2.30;;
52940;SDS011;62001;53.366;6.636;2023-04-25T08:43:29;14.85;;;2.78;;
52940;SDS011;62001;53.366;6.636;2023-04-25T08:45:59;14.10;;;2.63;;
52940;SDS011;62001;53.366;6.636;2023-04-25T08:48:28;10.80;;;2.42;;
52940;SDS011;62001;53.366;6.636;2023-04-25T08:50:57;11.20;;;2.67;;
52940;SDS011;62001;53.366;6.636;2023-04-25T08:53:27;6.68;;;2.15;;
52940;SDS011;62001;53.366;6.636;2023-04-25T08:55:57;10.52;;;2.20;;
52940;SDS011;62001;53.366;6.636;2023-04-25T08:58:24;9.68;;;2.10;;
52940;SDS011;62001;53.366;6.636;2023-04-25T09:00:52;10.88;;;2.17;;
52940;SDS011;62001;53.366;6.636;2023-04-25T09:03:17;10.27;;;2.20;;
52940;SDS011;62001;53.366;6.636;2023-04-25T09:05:43;13.10;;;2.38;;
52940;SDS011;62001;53.366;6.636;2023-04-25T09:08:10;11.35;;;2.42;;
52940;SDS011;62001;53.366;6.636;2023-04-25T09:10:36;10.38;;;2.03;;
52940;SDS011;62001;53.366;6.636;2023-04-25T09:13:06;8.52;;;1.92;;
52940;SDS011;62001;53.366;6.636;2023-04-25T09:15:49;7.15;;;1.30;;
52940;SDS011;62001;53.366;6.636;2023-04-25T09:18:23;5.85;;;1.23;;
52940;SDS011;62001;53.366;6.636;2023-04-25T09:20:54;6.18;;;1.67;;
52940;SDS011;62001;53.366;6.636;2023-04-25T09:23:23;9.18;;;1.98;;
52940;SDS011;62001;53.366;6.636;2023-04-25T09:25:53;11.20;;;2.40;;
52940;SDS011;62001;53.366;6.636;2023-04-25T09:28:25;10.57;;;2.60;;
52940;SDS011;62001;53.366;6.636;2023-04-25T09:30:56;6.70;;;2.08;;
52940;SDS011;62001;53.366;6.636;2023-04-25T09:35:56;6.90;;;1.70;;
52940;SDS011;62001;53.366;6.636;2023-04-25T09:38:31;6.03;;;1.50;;
52940;SDS011;62001;53.366;6.636;2023-04-25T09:40:57;5.50;;;1.65;;
52940;SDS011;62001;53.366;6.636;2023-04-25T09:43:24;9.07;;;1.75;;
52940;SDS011;62001;53.366;6.636;2023-04-25T09:45:51;9.38;;;2.28;;
52940;SDS011;62001;53.366;6.636;2023-04-25T09:48:22;12.82;;;2.17;;
52940;SDS011;62001;53.366;6.636;2023-04-25T09:53:31;7.88;;;2.00;;
52940;SDS011;62001;53.366;6.636;2023-04-25T09:56:05;10.57;;;2.35;;
52940;SDS011;62001;53.366;6.636;2023-04-25T09:58:32;13.88;;;2.67;;
52940;SDS011;62001;53.366;6.636;2023-04-25T10:01:00;6.70;;;1.85;;
52940;SDS011;62001;53.366;6.636;2023-04-25T10:03:31;10.80;;;2.25;;
52940;SDS011;62001;53.366;6.636;2023-04-25T10:06:05;8.25;;;1.85;;
52940;SDS011;62001;53.366;6.636;2023-04-25T10:08:37;4.30;;;1.17;;
52940;SDS011;62001;53.366;6.636;2023-04-25T10:11:04;8.10;;;1.40;;
52940;SDS011;62001;53.366;6.636;2023-04-25T10:13:32;10.48;;;2.05;;
52940;SDS011;62001;53.366;6.636;2023-04-25T10:15:59;12.13;;;2.20;;
52940;SDS011;62001;53.366;6.636;2023-04-25T10:18:29;10.30;;;1.90;;
52940;SDS011;62001;53.366;6.636;2023-04-25T10:20:58;14.63;;;2.08;;
52940;SDS011;62001;53.366;6.636;2023-04-25T10:25:52;6.72;;;1.98;;
52940;SDS011;62001;53.366;6.636;2023-04-25T10:28:19;12.70;;;2.15;;
52940;SDS011;62001;53.366;6.636;2023-04-25T10:31:01;12.13;;;1.80;;
52940;SDS011;62001;53.366;6.636;2023-04-25T10:33:38;12.68;;;2.20;;
52940;SDS011;62001;53.366;6.636;2023-04-25T10:36:22;15.15;;;2.20;;
52940;SDS011;62001;53.366;6.636;2023-04-25T10:38:50;10.70;;;2.67;;
52940;SDS011;62001;53.366;6.636;2023-04-25T10:41:20;13.15;;;2.15;;
52940;SDS011;62001;53.366;6.636;2023-04-25T10:43:48;15.48;;;2.75;;
52940;SDS011;62001;53.366;6.636;2023-04-25T10:46:29;11.70;;;2.13;;
52940;SDS011;62001;53.366;6.636;2023-04-25T10:48:59;10.32;;;2.28;;
52940;SDS011;62001;53.366;6.636;2023-04-25T10:56:27;9.23;;;1.70;;
52940;SDS011;62001;53.366;6.636;2023-04-25T10:59:04;6.40;;;1.70;;
52940;SDS011;62001;53.366;6.636;2023-04-25T11:01:41;19.75;;;3.47;;
52940;SDS011;62001;53.366;6.636;2023-04-25T11:09:38;8.43;;;1.95;;
52940;SDS011;62001;53.366;6.636;2023-04-25T11:12:06;10.25;;;1.60;;
52940;SDS011;62001;53.366;6.636;2023-04-25T11:14:33;8.97;;;1.80;;
52940;SDS011;62001;53.366;6.636;2023-04-25T11:16:59;9.43;;;2.10;;
52940;SDS011;62001;53.366;6.636;2023-04-25T11:19:30;8.98;;;2.22;;
52940;SDS011;62001;53.366;6.636;2023-04-25T11:21:56;11.82;;;2.22;;
52940;SDS011;62001;53.366;6.636;2023-04-25T11:24:26;15.23;;;2.70;;
52940;SDS011;62001;53.366;6.636;2023-04-25T11:26:56;13.73;;;2.17;;
52940;SDS011;62001;53.366;6.636;2023-04-25T11:29:26;12.27;;;2.83;;
52940;SDS011;62001;53.366;6.636;2023-04-25T11:31:54;10.48;;;2.33;;
52940;SDS011;62001;53.366;6.636;2023-04-25T11:36:50;11.93;;;2.22;;
52940;SDS011;62001;53.366;6.636;2023-04-25T11:39:18;8.18;;;2.08;;
52940;SDS011;62001;53.366;6.636;2023-04-25T11:41:44;15.05;;;2.35;;
52940;SDS011;62001;53.366;6.636;2023-04-25T11:44:15;8.50;;;1.98;;
52940;SDS011;62001;53.366;6.636;2023-04-25T11:46:42;13.05;;;2.42;;
52940;SDS011;62001;53.366;6.636;2023-04-25T11:49:08;10.85;;;2.30;;
52940;SDS011;62001;53.366;6.636;2023-04-25T11:51:38;17.88;;;2.47;;
52940;SDS011;62001;53.366;6.636;2023-04-25T11:54:08;9.05;;;2.00;;
52940;SDS011;62001;53.366;6.636;2023-04-25T11:56:34;10.52;;;2.33;;
52940;SDS011;62001;53.366;6.636;2023-04-25T11:59:04;11.70;;;2.10;;
52940;SDS011;62001;53.366;6.636;2023-04-25T12:01:31;19.33;;;2.53;;
52940;SDS011;62001;53.366;6.636;2023-04-25T12:04:10;20.33;;;2.85;;
52940;SDS011;62001;53.366;6.636;2023-04-25T12:06:37;9.02;;;2.05;;
52940;SDS011;62001;53.366;6.636;2023-04-25T12:09:07;8.95;;;2.03;;
52940;SDS011;62001;53.366;6.636;2023-04-25T12:11:41;9.20;;;2.00;;
52940;SDS011;62001;53.366;6.636;2023-04-25T12:14:10;11.40;;;1.88;;
52940;SDS011;62001;53.366;6.636;2023-04-25T12:16:41;10.95;;;2.17;;
52940;SDS011;62001;53.366;6.636;2023-04-25T12:19:13;6.05;;;2.00;;
52940;SDS011;62001;53.366;6.636;2023-04-25T12:21:40;11.20;;;2.10;;
52940;SDS011;62001;53.366;6.636;2023-04-25T12:24:16;10.38;;;2.10;;
52940;SDS011;62001;53.366;6.636;2023-04-25T12:29:23;7.47;;;1.83;;
52940;SDS011;62001;53.366;6.636;2023-04-25T12:31:50;9.52;;;2.15;;
52940;SDS011;62001;53.366;6.636;2023-04-25T12:34:17;11.15;;;2.03;;
52940;SDS011;62001;53.366;6.636;2023-04-25T12:36:43;10.38;;;2.20;;
52940;SDS011;62001;53.366;6.636;2023-04-25T12:41:41;13.10;;;2.15;;
52940;SDS011;62001;53.366;6.636;2023-04-25T12:44:07;8.75;;;2.10;;
52940;SDS011;62001;53.366;6.636;2023-04-25T12:46:33;11.63;;;2.17;;
52940;SDS011;62001;53.366;6.636;2023-04-25T12:48:59;12.45;;;2.58;;
52940;SDS011;62001;53.366;6.636;2023-04-25T12:51:25;13.48;;;2.63;;
52940;SDS011;62001;53.366;6.636;2023-04-25T12:53:53;12.25;;;2.25;;
52940;SDS011;62001;53.366;6.636;2023-04-25T12:56:19;12.65;;;1.98;;
52940;SDS011;62001;53.366;6.636;2023-04-25T12:58:45;9.23;;;2.17;;
52940;SDS011;62001;53.366;6.636;2023-04-25T13:01:11;15.23;;;2.40;;
52940;SDS011;62001;53.366;6.636;2023-04-25T13:03:39;10.80;;;2.10;;
52940;SDS011;62001;53.366;6.636;2023-04-25T13:06:05;10.70;;;1.85;;
52940;SDS011;62001;53.366;6.636;2023-04-25T13:08:32;9.25;;;2.03;;
52940;SDS011;62001;53.366;6.636;2023-04-25T13:10:58;8.07;;;1.73;;
52940;SDS011;62001;53.366;6.636;2023-04-25T13:13:23;7.93;;;1.75;;
52940;SDS011;62001;53.366;6.636;2023-04-25T13:15:51;9.07;;;2.00;;
52940;SDS011;62001;53.366;6.636;2023-04-25T13:18:18;10.55;;;2.00;;
52940;SDS011;62001;53.366;6.636;2023-04-25T13:20:44;14.43;;;2.13;;
52940;SDS011;62001;53.366;6.636;2023-04-25T13:23:11;10.15;;;2.30;;
52940;SDS011;62001;53.366;6.636;2023-04-25T13:25:37;9.73;;;2.22;;
52940;SDS011;62001;53.366;6.636;2023-04-25T13:28:03;11.32;;;2.30;;
52940;SDS011;62001;53.366;6.636;2023-04-25T13:30:29;13.43;;;2.40;;
52940;SDS011;62001;53.366;6.636;2023-04-25T13:32:55;11.38;;;2.05;;
52940;SDS011;62001;53.366;6.636;2023-04-25T13:35:24;11.57;;;2.08;;
52940;SDS011;62001;53.366;6.636;2023-04-25T13:37:50;6.80;;;1.90;;
52940;SDS011;62001;53.366;6.636;2023-04-25T13:40:16;14.10;;;2.10;;
52940;SDS011;62001;53.366;6.636;2023-04-25T13:42:42;11.70;;;2.35;;
52940;SDS011;62001;53.366;6.636;2023-04-25T13:45:10;12.50;;;2.10;;
52940;SDS011;62001;53.366;6.636;2023-04-25T13:47:36;7.38;;;2.00;;
52940;SDS011;62001;53.366;6.636;2023-04-25T13:50:02;7.00;;;1.45;;
52940;SDS011;62001;53.366;6.636;2023-04-25T13:52:30;8.20;;;2.03;;
52940;SDS011;62001;53.366;6.636;2023-04-25T13:54:56;10.93;;;1.95;;
52940;SDS011;62001;53.366;6.636;2023-04-25T13:57:23;9.75;;;1.88;;
52940;SDS011;62001;53.366;6.636;2023-04-25T13:59:50;9.18;;;1.85;;
52940;SDS011;62001;53.366;6.636;2023-04-25T14:02:16;8.50;;;1.73;;
52940;SDS011;62001;53.366;6.636;2023-04-25T14:04:43;13.00;;;2.03;;
52940;SDS011;62001;53.366;6.636;2023-04-25T14:07:08;11.65;;;2.03;;
52940;SDS011;62001;53.366;6.636;2023-04-25T14:09:36;9.32;;;1.88;;
52940;SDS011;62001;53.366;6.636;2023-04-25T14:12:02;10.18;;;2.00;;
52940;SDS011;62001;53.366;6.636;2023-04-25T14:14:28;7.32;;;1.85;;
52940;SDS011;62001;53.366;6.636;2023-04-25T14:16:54;13.68;;;2.20;;
52940;SDS011;62001;53.366;6.636;2023-04-25T14:19:20;11.70;;;2.20;;
52940;SDS011;62001;53.366;6.636;2023-04-25T14:21:46;9.27;;;2.03;;
52940;SDS011;62001;53.366;6.636;2023-04-25T14:24:13;7.95;;;1.75;;
52940;SDS011;62001;53.366;6.636;2023-04-25T14:26:39;17.17;;;2.10;;
52940;SDS011;62001;53.366;6.636;2023-04-25T14:29:06;10.90;;;2.00;;
52940;SDS011;62001;53.366;6.636;2023-04-25T14:31:33;10.65;;;2.10;;
52940;SDS011;62001;53.366;6.636;2023-04-25T14:34:00;13.18;;;2.30;;
52940;SDS011;62001;53.366;6.636;2023-04-25T14:36:29;10.18;;;2.58;;
52940;SDS011;62001;53.366;6.636;2023-04-25T14:38:56;13.05;;;2.47;;
52940;SDS011;62001;53.366;6.636;2023-04-25T14:41:22;14.18;;;2.17;;
52940;SDS011;62001;53.366;6.636;2023-04-25T14:43:48;12.60;;;1.95;;
52940;SDS011;62001;53.366;6.636;2023-04-25T14:46:14;10.00;;;1.73;;
52940;SDS011;62001;53.366;6.636;2023-04-25T14:48:40;7.88;;;1.42;;
52940;SDS011;62001;53.366;6.636;2023-04-25T14:51:06;6.50;;;1.50;;
52940;SDS011;62001;53.366;6.636;2023-04-25T14:53:32;9.60;;;1.75;;
52940;SDS011;62001;53.366;6.636;2023-04-25T14:55:57;14.68;;;2.30;;
52940;SDS011;62001;53.366;6.636;2023-04-25T14:58:23;14.60;;;2.13;;
52940;SDS011;62001;53.366;6.636;2023-04-25T15:00:49;14.48;;;2.25;;
52940;SDS011;62001;53.366;6.636;2023-04-25T15:03:16;17.60;;;2.40;;
52940;SDS011;62001;53.366;6.636;2023-04-25T15:05:42;6.50;;;1.67;;